Clifton Springs, New York
Current Conditions -  °F | °C
As of 8:53 AM on Saturday 22 Nov 2014 (Local Time) from KPEO Reporting Station
Clear Clear  
Wind Chill: 16°   Ceiling: Unl
Heat Index: 28°   Visibility: 10mi
Dew Point: 12°   Wind: 16mph
Humidity: 51%   Direction: 200°SSW
Pressure: 30.23"   Gusts: 22mph
Location:  42.96°N, 77.14°W
Report Text: KPEO 221353Z AUTO 20014G19KT 10SM CLR M02/M11 A3023 RMK AO2 SLP251 T10221111
Loading
Personal Weather Stations






























Interactive Weather Map New forecast layout! Learn more

10-Day Weather Forecast

Advertisements
Track Severe Weather on mobile